SWA2758 KBWI-KROC
Flight info
| Callsign | SWA2758 |
|---|---|
| Flight time | 0h 49m |
| Altitude | 33000 |
| Route | LINSE2 JERES Q227 STUBN GIBBE |
| Aircraft | B38M/M-SDE1FGHILORVWXY/HB1 |
Departure
| Time | 2026-05-07 22:50 |
|---|---|
| Airport | Baltimore/Washington International Thurgood Marshall Airport (KBWI) |
Arrival
| Time | 2026-05-07 23:39 |
|---|---|
| Airport | Frederick Douglass Greater Rochester International Airport (KROC) |
| Time | Latitude | Longitude | Altitude | Speed | Heading |
|---|---|---|---|---|---|
| 2026-05-07 22:38 | 39.17752 | -76.66593 | 158 ft | 2 kts | 256° |
| 2026-05-07 22:38 | 39.17755 | -76.66582 | 158 ft | 4 kts | 255° |
| 2026-05-07 22:39 | 39.17764 | -76.66551 | 158 ft | 4 kts | 230° |
| 2026-05-07 22:39 | 39.17782 | -76.66538 | 158 ft | 4 kts | 166° |
| 2026-05-07 22:39 | 39.17792 | -76.66543 | 158 ft | 1 kts | 144° |
| 2026-05-07 22:42 | 39.17785 | -76.66537 | 158 ft | 3 kts | 144° |
| 2026-05-07 22:42 | 39.17755 | -76.66518 | 158 ft | 7 kts | 170° |
| 2026-05-07 22:43 | 39.17729 | -76.66523 | 158 ft | 10 kts | 196° |
| 2026-05-07 22:43 | 39.17699 | -76.66535 | 158 ft | 9 kts | 198° |
| 2026-05-07 22:44 | 39.17620 | -76.66570 | 157 ft | 9 kts | 207° |
| 2026-05-07 22:44 | 39.17583 | -76.66602 | 156 ft | 3 kts | 214° |
| 2026-05-07 22:44 | 39.17555 | -76.66627 | 156 ft | 0 kts | 214° |
| 2026-05-07 22:44 | 39.17554 | -76.66628 | 156 ft | 2 kts | 213° |
| 2026-05-07 22:45 | 39.17550 | -76.66631 | 156 ft | 0 kts | 206° |
| 2026-05-07 22:45 | 39.17548 | -76.66631 | 156 ft | 0 kts | 199° |
| 2026-05-07 22:45 | 39.17538 | -76.66640 | 157 ft | 6 kts | 222° |
| 2026-05-07 22:46 | 39.17521 | -76.66723 | 157 ft | 12 kts | 272° |
| 2026-05-07 22:46 | 39.17532 | -76.66872 | 158 ft | 18 kts | 274° |
| 2026-05-07 22:46 | 39.17573 | -76.67025 | 158 ft | 23 kts | 310° |
| 2026-05-07 22:46 | 39.17708 | -76.67154 | 158 ft | 28 kts | 323° |
| 2026-05-07 22:47 | 39.17880 | -76.67310 | 156 ft | 34 kts | 324° |
| 2026-05-07 22:47 | 39.18021 | -76.67442 | 155 ft | 20 kts | 323° |
| 2026-05-07 22:47 | 39.18150 | -76.67560 | 155 ft | 24 kts | 324° |
| 2026-05-07 22:47 | 39.18204 | -76.67718 | 148 ft | 19 kts | 307° |
| 2026-05-07 22:48 | 39.18331 | -76.67837 | 148 ft | 26 kts | 324° |
| 2026-05-07 22:48 | 39.18468 | -76.67967 | 149 ft | 20 kts | 322° |
| 2026-05-07 22:48 | 39.18559 | -76.68068 | 150 ft | 14 kts | 297° |
| 2026-05-07 22:48 | 39.18501 | -76.68162 | 147 ft | 17 kts | 163° |
| 2026-05-07 22:49 | 39.18371 | -76.68046 | 148 ft | 32 kts | 144° |
| 2026-05-07 22:49 | 39.17988 | -76.67694 | 147 ft | 106 kts | 144° |
| 2026-05-07 22:49 | 39.17201 | -76.66956 | 198 ft | 167 kts | 145° |
| 2026-05-07 22:49 | 39.16205 | -76.66052 | 527 ft | 178 kts | 144° |
| 2026-05-07 22:50 | 39.15204 | -76.65173 | 994 ft | 171 kts | 153° |
| 2026-05-07 22:50 | 39.14041 | -76.64863 | 1225 ft | 176 kts | 193° |
| 2026-05-07 22:50 | 39.13008 | -76.65615 | 1574 ft | 174 kts | 231° |
| 2026-05-07 22:50 | 39.12554 | -76.67039 | 1860 ft | 179 kts | 268° |
| 2026-05-07 22:51 | 39.12909 | -76.68612 | 2062 ft | 195 kts | 307° |
| 2026-05-07 22:51 | 39.13990 | -76.69776 | 2262 ft | 212 kts | 321° |
| 2026-05-07 22:51 | 39.15117 | -76.71115 | 2420 ft | 229 kts | 315° |
| 2026-05-07 22:51 | 39.16282 | -76.72579 | 2741 ft | 235 kts | 316° |
| 2026-05-07 22:52 | 39.17468 | -76.74047 | 3232 ft | 238 kts | 316° |
| 2026-05-07 22:52 | 39.18595 | -76.75543 | 3853 ft | 238 kts | 305° |
| 2026-05-07 22:52 | 39.19209 | -76.77574 | 4051 ft | 254 kts | 281° |
| 2026-05-07 22:52 | 39.19510 | -76.79859 | 4407 ft | 259 kts | 281° |
| 2026-05-07 22:53 | 39.19680 | -76.82174 | 4920 ft | 262 kts | 271° |
| 2026-05-07 22:53 | 39.19658 | -76.84526 | 5511 ft | 261 kts | 271° |
| 2026-05-07 22:53 | 39.19650 | -76.86872 | 6365 ft | 264 kts | 271° |
| 2026-05-07 22:53 | 39.19651 | -76.89214 | 7230 ft | 259 kts | 271° |
| 2026-05-07 22:54 | 39.19658 | -76.91519 | 8123 ft | 256 kts | 271° |
| 2026-05-07 22:54 | 39.19668 | -76.93806 | 9008 ft | 253 kts | 271° |
| 2026-05-07 22:54 | 39.19680 | -76.96064 | 9873 ft | 251 kts | 271° |
| 2026-05-07 22:54 | 39.19817 | -76.98329 | 10414 ft | 260 kts | 279° |
| 2026-05-07 22:55 | 39.20193 | -77.00701 | 10622 ft | 280 kts | 279° |
| 2026-05-07 22:55 | 39.20593 | -77.03249 | 10774 ft | 300 kts | 279° |
| 2026-05-07 22:55 | 39.21017 | -77.05975 | 10885 ft | 319 kts | 279° |
| 2026-05-07 22:55 | 39.21464 | -77.08862 | 10969 ft | 337 kts | 279° |
| 2026-05-07 22:56 | 39.21974 | -77.11833 | 11125 ft | 352 kts | 286° |
| 2026-05-07 22:56 | 39.23180 | -77.14595 | 11733 ft | 360 kts | 304° |
| 2026-05-07 22:56 | 39.25013 | -77.16865 | 12282 ft | 369 kts | 312° |
| 2026-05-07 22:56 | 39.26956 | -77.19064 | 12819 ft | 373 kts | 312° |
| 2026-05-07 22:57 | 39.28926 | -77.21271 | 13392 ft | 377 kts | 312° |
| 2026-05-07 22:57 | 39.30920 | -77.23491 | 13956 ft | 380 kts | 312° |
| 2026-05-07 22:57 | 39.32919 | -77.25710 | 14720 ft | 377 kts | 312° |
| 2026-05-07 22:57 | 39.34918 | -77.27929 | 15289 ft | 381 kts | 312° |
| 2026-05-07 22:58 | 39.36934 | -77.30166 | 15790 ft | 385 kts | 312° |
| 2026-05-07 22:58 | 39.38961 | -77.32407 | 15547 ft | 381 kts | 312° |
| 2026-05-07 22:58 | 39.40983 | -77.34639 | 15726 ft | 383 kts | 312° |
| 2026-05-07 22:58 | 39.43016 | -77.36877 | 15767 ft | 384 kts | 312° |
| 2026-05-07 22:59 | 39.45047 | -77.39112 | 15763 ft | 383 kts | 312° |
| 2026-05-07 22:59 | 39.47082 | -77.41348 | 15774 ft | 383 kts | 312° |
| 2026-05-07 22:59 | 39.49114 | -77.43582 | 15774 ft | 383 kts | 312° |
| 2026-05-07 22:59 | 39.50459 | -77.45062 | 15775 ft | 383 kts | 312° |
| 2026-05-07 23:00 | 39.53172 | -77.48040 | 15772 ft | 382 kts | 313° |
| 2026-05-07 23:00 | 39.54512 | -77.49523 | 15778 ft | 383 kts | 312° |
| 2026-05-07 23:00 | 39.56541 | -77.51763 | 15799 ft | 383 kts | 312° |
| 2026-05-07 23:00 | 39.58570 | -77.54001 | 15787 ft | 383 kts | 312° |
| 2026-05-07 23:01 | 39.60604 | -77.56250 | 15777 ft | 384 kts | 312° |
| 2026-05-07 23:01 | 39.62632 | -77.58510 | 15774 ft | 385 kts | 312° |
| 2026-05-07 23:01 | 39.64676 | -77.60779 | 15762 ft | 386 kts | 312° |
| 2026-05-07 23:01 | 39.66718 | -77.63047 | 15766 ft | 387 kts | 312° |
| 2026-05-07 23:02 | 39.68766 | -77.65323 | 15760 ft | 387 kts | 312° |
| 2026-05-07 23:02 | 39.70812 | -77.67591 | 15766 ft | 387 kts | 312° |
| 2026-05-07 23:02 | 39.72862 | -77.69860 | 15763 ft | 387 kts | 312° |
| 2026-05-07 23:02 | 39.74910 | -77.72129 | 15769 ft | 387 kts | 313° |
| 2026-05-07 23:03 | 39.76956 | -77.74400 | 15766 ft | 387 kts | 313° |
| 2026-05-07 23:03 | 39.78999 | -77.76668 | 15762 ft | 386 kts | 313° |
| 2026-05-07 23:03 | 39.81043 | -77.78939 | 15764 ft | 387 kts | 313° |
| 2026-05-07 23:03 | 39.83087 | -77.81214 | 15768 ft | 387 kts | 313° |
| 2026-05-07 23:04 | 39.85108 | -77.83458 | 15790 ft | 387 kts | 313° |
| 2026-05-07 23:04 | 39.87159 | -77.85730 | 15786 ft | 387 kts | 313° |
| 2026-05-07 23:04 | 39.89207 | -77.88000 | 15782 ft | 387 kts | 313° |
| 2026-05-07 23:04 | 39.91260 | -77.90273 | 15783 ft | 387 kts | 313° |
| 2026-05-07 23:05 | 39.93308 | -77.92544 | 15786 ft | 387 kts | 313° |
| 2026-05-07 23:05 | 39.95353 | -77.94823 | 16308 ft | 386 kts | 312° |
| 2026-05-07 23:05 | 39.97418 | -77.97091 | 16871 ft | 391 kts | 313° |
| 2026-05-07 23:05 | 39.99532 | -77.99345 | 17424 ft | 397 kts | 317° |
| 2026-05-07 23:06 | 40.02113 | -78.00838 | 18110 ft | 420 kts | 339° |
| 2026-05-07 23:06 | 40.05111 | -78.00991 | 18638 ft | 445 kts | 0° |
| 2026-05-07 23:06 | 40.08146 | -77.99839 | 19153 ft | 462 kts | 14° |
| 2026-05-07 23:06 | 40.11023 | -77.97807 | 19584 ft | 475 kts | 25° |
| 2026-05-07 23:07 | 40.13866 | -77.95596 | 19987 ft | 477 kts | 22° |
| 2026-05-07 23:07 | 40.16756 | -77.93429 | 20447 ft | 479 kts | 22° |
| 2026-05-07 23:07 | 40.19664 | -77.91276 | 20891 ft | 482 kts | 21° |
| 2026-05-07 23:07 | 40.22597 | -77.89127 | 21303 ft | 485 kts | 21° |
| 2026-05-07 23:08 | 40.25560 | -77.86957 | 21746 ft | 488 kts | 21° |
| 2026-05-07 23:08 | 40.28537 | -77.84775 | 22192 ft | 493 kts | 21° |
| 2026-05-07 23:08 | 40.31543 | -77.82573 | 22549 ft | 498 kts | 21° |
| 2026-05-07 23:08 | 40.34573 | -77.80347 | 22982 ft | 501 kts | 21° |
| 2026-05-07 23:09 | 40.37581 | -77.78141 | 23322 ft | 504 kts | 20° |
| 2026-05-07 23:09 | 40.40647 | -77.75879 | 23611 ft | 507 kts | 20° |
| 2026-05-07 23:09 | 40.43735 | -77.73604 | 23960 ft | 510 kts | 21° |
| 2026-05-07 23:09 | 40.46832 | -77.71321 | 24313 ft | 512 kts | 20° |
| 2026-05-07 23:10 | 40.49951 | -77.69017 | 24625 ft | 516 kts | 20° |
| 2026-05-07 23:10 | 40.53101 | -77.66692 | 24932 ft | 519 kts | 20° |
| 2026-05-07 23:10 | 40.56253 | -77.64360 | 25262 ft | 521 kts | 20° |
| 2026-05-07 23:10 | 40.59422 | -77.62012 | 25571 ft | 524 kts | 20° |
| 2026-05-07 23:11 | 40.62604 | -77.59651 | 25899 ft | 526 kts | 20° |
| 2026-05-07 23:11 | 40.65806 | -77.57279 | 26170 ft | 528 kts | 20° |
| 2026-05-07 23:11 | 40.69009 | -77.54890 | 26573 ft | 531 kts | 20° |
| 2026-05-07 23:11 | 40.72244 | -77.52484 | 26794 ft | 535 kts | 20° |
| 2026-05-07 23:12 | 40.75486 | -77.50067 | 27144 ft | 537 kts | 20° |
| 2026-05-07 23:12 | 40.78745 | -77.47637 | 27416 ft | 539 kts | 20° |
| 2026-05-07 23:12 | 40.81971 | -77.45225 | 27788 ft | 539 kts | 20° |
| 2026-05-07 23:12 | 40.85231 | -77.42788 | 28185 ft | 539 kts | 20° |
| 2026-05-07 23:13 | 40.88499 | -77.40347 | 28610 ft | 537 kts | 18° |
| 2026-05-07 23:13 | 40.91867 | -77.38478 | 28807 ft | 515 kts | 4° |
| 2026-05-07 23:13 | 40.95318 | -77.37329 | 28873 ft | 510 kts | 2° |
| 2026-05-07 23:14 | 41.02201 | -77.35173 | 28870 ft | 507 kts | 1° |
| 2026-05-07 23:14 | 41.09083 | -77.33099 | 28923 ft | 507 kts | 0° |
| 2026-05-07 23:15 | 41.15965 | -77.31033 | 28818 ft | 506 kts | 0° |
| 2026-05-07 23:15 | 41.22875 | -77.28945 | 28854 ft | 510 kts | 0° |
| 2026-05-07 23:16 | 41.29798 | -77.26860 | 28914 ft | 509 kts | 0° |
| 2026-05-07 23:16 | 41.36716 | -77.24763 | 28857 ft | 510 kts | 0° |
| 2026-05-07 23:17 | 41.43654 | -77.22661 | 28802 ft | 511 kts | 0° |
| 2026-05-07 23:17 | 41.50584 | -77.20558 | 28926 ft | 512 kts | 0° |
| 2026-05-07 23:18 | 41.57532 | -77.18438 | 28909 ft | 512 kts | 0° |
| 2026-05-07 23:18 | 41.64436 | -77.16336 | 28880 ft | 512 kts | 1° |
| 2026-05-07 23:19 | 41.71383 | -77.14209 | 28899 ft | 511 kts | 0° |
| 2026-05-07 23:19 | 41.78321 | -77.12082 | 28905 ft | 512 kts | 1° |
| 2026-05-07 23:20 | 41.85261 | -77.09940 | 28887 ft | 512 kts | 1° |
| 2026-05-07 23:20 | 41.92205 | -77.07799 | 28894 ft | 512 kts | 1° |
| 2026-05-07 23:20 | 41.95673 | -77.06723 | 27974 ft | 513 kts | 1° |
| 2026-05-07 23:21 | 41.99194 | -77.05641 | 26572 ft | 524 kts | 2° |
| 2026-05-07 23:21 | 42.02742 | -77.04533 | 25809 ft | 521 kts | 3° |
| 2026-05-07 23:21 | 42.06256 | -77.03440 | 25104 ft | 516 kts | 3° |
| 2026-05-07 23:21 | 42.09740 | -77.02530 | 24442 ft | 500 kts | 355° |
| 2026-05-07 23:22 | 42.13176 | -77.02289 | 23774 ft | 492 kts | 353° |
| 2026-05-07 23:22 | 42.16582 | -77.02081 | 23091 ft | 488 kts | 353° |
| 2026-05-07 23:22 | 42.19960 | -77.01890 | 22384 ft | 483 kts | 353° |
| 2026-05-07 23:22 | 42.23302 | -77.01708 | 21725 ft | 477 kts | 353° |
| 2026-05-07 23:23 | 42.26596 | -77.01527 | 21164 ft | 470 kts | 354° |
| 2026-05-07 23:23 | 42.29796 | -77.01354 | 20612 ft | 465 kts | 354° |
| 2026-05-07 23:23 | 42.33011 | -77.01176 | 20010 ft | 460 kts | 355° |
| 2026-05-07 23:23 | 42.36184 | -77.01005 | 19454 ft | 454 kts | 355° |
| 2026-05-07 23:24 | 42.39309 | -77.01002 | 18897 ft | 441 kts | 346° |
| 2026-05-07 23:24 | 42.42185 | -77.02032 | 18439 ft | 417 kts | 329° |
| 2026-05-07 23:24 | 42.44583 | -77.04057 | 17778 ft | 399 kts | 312° |
| 2026-05-07 23:24 | 42.46343 | -77.06832 | 17152 ft | 382 kts | 300° |
| 2026-05-07 23:25 | 42.47839 | -77.09806 | 16243 ft | 377 kts | 299° |
| 2026-05-07 23:25 | 42.49276 | -77.12754 | 15150 ft | 375 kts | 299° |
| 2026-05-07 23:25 | 42.50682 | -77.15703 | 14575 ft | 365 kts | 298° |
| 2026-05-07 23:25 | 42.52016 | -77.18517 | 14421 ft | 345 kts | 298° |
| 2026-05-07 23:26 | 42.53290 | -77.21194 | 14239 ft | 339 kts | 298° |
| 2026-05-07 23:26 | 42.54597 | -77.23952 | 14065 ft | 356 kts | 298° |
| 2026-05-07 23:26 | 42.55955 | -77.26801 | 13863 ft | 363 kts | 298° |
| 2026-05-07 23:26 | 42.57329 | -77.29700 | 13662 ft | 366 kts | 298° |
| 2026-05-07 23:27 | 42.60066 | -77.35507 | 13235 ft | 364 kts | 298° |
| 2026-05-07 23:27 | 42.61432 | -77.38402 | 13024 ft | 363 kts | 298° |
| 2026-05-07 23:27 | 42.62797 | -77.41284 | 12799 ft | 363 kts | 299° |
| 2026-05-07 23:28 | 42.64162 | -77.44161 | 12612 ft | 362 kts | 298° |
| 2026-05-07 23:28 | 42.65528 | -77.47037 | 12396 ft | 361 kts | 299° |
| 2026-05-07 23:28 | 42.66887 | -77.49903 | 12187 ft | 360 kts | 299° |
| 2026-05-07 23:28 | 42.68234 | -77.52742 | 11978 ft | 357 kts | 299° |
| 2026-05-07 23:29 | 42.69585 | -77.55589 | 11790 ft | 357 kts | 299° |
| 2026-05-07 23:29 | 42.70891 | -77.58338 | 11213 ft | 346 kts | 298° |
| 2026-05-07 23:29 | 42.72190 | -77.61057 | 10611 ft | 338 kts | 299° |
| 2026-05-07 23:29 | 42.73478 | -77.63722 | 10018 ft | 328 kts | 299° |
| 2026-05-07 23:30 | 42.74716 | -77.66279 | 9523 ft | 318 kts | 299° |
| 2026-05-07 23:30 | 42.75893 | -77.68727 | 9074 ft | 308 kts | 299° |
| 2026-05-07 23:30 | 42.77039 | -77.71132 | 8673 ft | 298 kts | 299° |
| 2026-05-07 23:30 | 42.78137 | -77.73467 | 8292 ft | 288 kts | 299° |
| 2026-05-07 23:31 | 42.79197 | -77.75727 | 7952 ft | 278 kts | 299° |
| 2026-05-07 23:31 | 42.80215 | -77.77904 | 7650 ft | 267 kts | 299° |
| 2026-05-07 23:31 | 42.81195 | -77.80007 | 7332 ft | 259 kts | 299° |
| 2026-05-07 23:31 | 42.82151 | -77.82076 | 6855 ft | 258 kts | 299° |
| 2026-05-07 23:32 | 42.83101 | -77.84156 | 6506 ft | 257 kts | 299° |
| 2026-05-07 23:32 | 42.84037 | -77.86224 | 6084 ft | 257 kts | 299° |
| 2026-05-07 23:32 | 42.84962 | -77.88291 | 5766 ft | 255 kts | 299° |
| 2026-05-07 23:32 | 42.85883 | -77.90372 | 5346 ft | 257 kts | 299° |
| 2026-05-07 23:33 | 42.86794 | -77.92464 | 4980 ft | 257 kts | 299° |
| 2026-05-07 23:33 | 42.87697 | -77.94566 | 4592 ft | 257 kts | 299° |
| 2026-05-07 23:33 | 42.88597 | -77.96654 | 4271 ft | 254 kts | 301° |
| 2026-05-07 23:33 | 42.89831 | -77.98350 | 3890 ft | 256 kts | 328° |
| 2026-05-07 23:34 | 42.91515 | -77.99039 | 3530 ft | 261 kts | 355° |
| 2026-05-07 23:34 | 42.93292 | -77.98544 | 3199 ft | 266 kts | 24° |
| 2026-05-07 23:34 | 42.94708 | -77.96938 | 2983 ft | 266 kts | 51° |
| 2026-05-07 23:34 | 42.95673 | -77.94759 | 3043 ft | 271 kts | 59° |
| 2026-05-07 23:35 | 42.96595 | -77.92523 | 3026 ft | 269 kts | 57° |
| 2026-05-07 23:35 | 42.97528 | -77.90322 | 3015 ft | 264 kts | 58° |
| 2026-05-07 23:35 | 42.98423 | -77.88198 | 2999 ft | 251 kts | 58° |
| 2026-05-07 23:35 | 42.99266 | -77.86202 | 3009 ft | 236 kts | 58° |
| 2026-05-07 23:36 | 43.00060 | -77.84318 | 2986 ft | 223 kts | 58° |
| 2026-05-07 23:36 | 43.00836 | -77.82479 | 2904 ft | 224 kts | 58° |
| 2026-05-07 23:36 | 43.01621 | -77.80615 | 2504 ft | 230 kts | 58° |
| 2026-05-07 23:36 | 43.02428 | -77.78700 | 2008 ft | 233 kts | 59° |
| 2026-05-07 23:37 | 43.03209 | -77.76840 | 1916 ft | 215 kts | 58° |
| 2026-05-07 23:37 | 43.03908 | -77.75172 | 1891 ft | 190 kts | 57° |
| 2026-05-07 23:37 | 43.04748 | -77.73946 | 1636 ft | 167 kts | 30° |
| 2026-05-07 23:37 | 43.05659 | -77.73075 | 1316 ft | 156 kts | 37° |
| 2026-05-07 23:38 | 43.06511 | -77.72199 | 1160 ft | 151 kts | 28° |
| 2026-05-07 23:38 | 43.07439 | -77.71542 | 1107 ft | 151 kts | 26° |
| 2026-05-07 23:38 | 43.08342 | -77.70805 | 904 ft | 151 kts | 32° |
| 2026-05-07 23:38 | 43.09219 | -77.70004 | 812 ft | 152 kts | 32° |
| 2026-05-07 23:39 | 43.10115 | -77.69259 | 671 ft | 150 kts | 30° |
| 2026-05-07 23:39 | 43.10991 | -77.68520 | 555 ft | 144 kts | 28° |
| 2026-05-07 23:39 | 43.11623 | -77.67990 | 551 ft | 72 kts | 32° |
| 2026-05-07 23:39 | 43.11774 | -77.67786 | 556 ft | 17 kts | 58° |
| 2026-05-07 23:40 | 43.11842 | -77.67636 | 560 ft | 20 kts | 50° |
| 2026-05-07 23:40 | 43.11950 | -77.67537 | 555 ft | 20 kts | 33° |
| 2026-05-07 23:40 | 43.12071 | -77.67431 | 552 ft | 22 kts | 32° |
| 2026-05-07 23:40 | 43.12208 | -77.67318 | 553 ft | 25 kts | 31° |
| 2026-05-07 23:41 | 43.12375 | -77.67181 | 552 ft | 23 kts | 31° |
| 2026-05-07 23:41 | 43.12504 | -77.67058 | 559 ft | 26 kts | 46° |
| 2026-05-07 23:41 | 43.12658 | -77.66934 | 557 ft | 17 kts | 28° |
| 2026-05-07 23:41 | 43.12739 | -77.66827 | 558 ft | 13 kts | 65° |
| 2026-05-07 23:42 | 43.12729 | -77.66772 | 558 ft | 0 kts | 123° |